Aycock, Louisiana
Current Conditions -  °F | °C
As of 11:16 PM on Tuesday 25 Nov 2014 (Local Time) from KMNE Reporting Station
Clear Clear  
Wind Chill: 38°   Ceiling: Unl
Heat Index: 41°   Visibility: 10mi
Dew Point: 34°   Wind: 5mph
Humidity: 76%   Direction: 150°SSE
Pressure: 30.18"   Gusts: NA
Location:  32.7443°N, 92.9625°W
Report Text: KMNE 260516Z AUTO 15004KT 10SM CLR 05/01 A3018 RMK AO2
Loading
Personal Weather Stations






























Interactive Weather Map New forecast layout! Learn more

10-Day Weather Forecast

Advertisements
Track Severe Weather on mobile